Dayville, Indiana
Current Conditions -  °F | °C
As of 6:54 PM on Thursday 18 Dec 2014 (Local Time) from KEVV Reporting Station
Overcast Overcast  
Wind Chill: 34°   Ceiling: 7500
Heat Index: 34°   Visibility: 9mi
Dew Point: 25°   Wind: 3mph
Humidity: 70%   Direction: 360°N
Pressure: 30.26"   Gusts: NA
Location:  37.9629°N, 87.3632°W
Report Text: KEVV 190054Z 36003KT 9SM OVC075 01/M04 A3026 RMK AO2 SLP252 T00111039
Loading
Personal Weather Stations






























Interactive Weather Map New forecast layout! Learn more

10-Day Weather Forecast

Advertisements
Track Severe Weather on mobile